Time;durP1;ratioP1;P1;durP2;ratioP2;P2;SDS_P1;SDS_P2;PMS_P1;PMS_P2;Temp;Humidity;BMP_temperature;BMP_pressure;BME280_temperature;BME280_humidity;BME280_pressure;Samples;Min_cycle;Max_cycle;Signal;HPM_P1;HPM_P2
2023/11/11 00:02:27;;;;;;;10.20;4.10;;;;;;;10.28;54.43;100361.86;104706;1267;59756;-52
2023/11/11 00:04:56;;;;;;;13.40;4.90;;;;;;;10.23;54.59;100358.86;104882;1261;59742;-59
2023/11/11 00:07:24;;;;;;;9.90;5.20;;;;;;;10.21;54.65;100357.92;106062;1266;64107;-54
2023/11/11 00:09:51;;;;;;;8.70;2.80;;;;;;;10.19;54.70;100355.45;104699;1269;61381;-55
2023/11/11 00:12:19;;;;;;;9.30;5.00;;;;;;;10.16;54.83;100356.45;105023;1264;64614;-55
2023/11/11 00:14:46;;;;;;;6.70;2.10;;;;;;;10.14;54.75;100351.30;104789;1264;60088;-57
2023/11/11 00:17:14;;;;;;;9.80;4.20;;;;;;;10.18;54.58;100345.89;104770;1266;59539;-55
2023/11/11 00:19:43;;;;;;;8.10;4.50;;;;;;;10.24;54.42;100342.82;104773;1264;64663;-56
2023/11/11 00:22:11;;;;;;;12.20;4.80;;;;;;;10.27;54.39;100341.20;105321;1266;60449;-56
2023/11/11 00:24:39;;;;;;;5.20;1.80;;;;;;;10.28;54.27;100335.34;107000;1264;63724;-56
2023/11/11 00:27:07;;;;;;;7.70;4.10;;;;;;;10.28;54.15;100334.27;105082;1266;59708;-59
2023/11/11 00:29:35;;;;;;;12.00;4.90;;;;;;;10.27;54.06;100330.13;106141;1267;59123;-56
2023/11/11 00:32:03;;;;;;;10.90;4.70;;;;;;;10.27;54.14;100328.06;104791;1268;64131;-56
2023/11/11 00:34:30;;;;;;;4.80;2.20;;;;;;;10.24;54.25;100314.60;104797;1264;61310;-55
2023/11/11 00:36:58;;;;;;;11.00;5.20;;;;;;;10.20;54.17;100310.48;104815;1264;62554;-56
2023/11/11 00:39:26;;;;;;;11.10;5.10;;;;;;;10.16;54.18;100306.41;104732;1262;59756;-56
2023/11/11 00:41:54;;;;;;;6.90;2.40;;;;;;;10.14;54.25;100306.27;104979;1269;59656;-55
2023/11/11 00:44:22;;;;;;;11.20;5.40;;;;;;;10.11;54.32;100295.65;104862;1276;64138;-55
2023/11/11 00:46:49;;;;;;;5.60;2.00;;;;;;;10.09;54.39;100292.14;105542;1266;60187;-55
2023/11/11 00:49:17;;;;;;;14.50;5.60;;;;;;;10.07;54.44;100291.95;105218;1264;63846;-56
2023/11/11 00:51:45;;;;;;;9.20;2.30;;;;;;;10.03;54.48;100292.25;105151;1262;59719;-57
2023/11/11 00:54:14;;;;;;;9.90;5.80;;;;;;;10.00;54.64;100292.98;104729;1260;59745;-57
2023/11/11 00:56:42;;;;;;;5.70;3.00;;;;;;;9.98;54.72;100287.71;105324;1263;62955;-56
2023/11/11 00:59:10;;;;;;;9.00;4.50;;;;;;;10.02;54.63;100286.02;105308;1267;61375;-56
2023/11/11 01:01:38;;;;;;;8.10;4.00;;;;;;;10.09;54.68;100276.65;105301;1263;63752;-56
2023/11/11 01:04:05;;;;;;;10.70;5.00;;;;;;;10.19;54.71;100270.84;104646;1268;59743;-57
2023/11/11 01:06:33;;;;;;;14.40;4.80;;;;;;;10.24;54.65;100264.96;105224;1266;59740;-58
2023/11/11 01:09:03;;;;;;;5.30;1.70;;;;;;;10.27;54.65;100258.30;105250;1265;62898;-57
2023/11/11 01:11:30;;;;;;;9.50;4.70;;;;;;;10.28;54.61;100253.49;104818;1267;60137;-57
2023/11/11 01:13:59;;;;;;;7.90;4.50;;;;;;;10.27;54.57;100246.55;104687;1269;62507;-54
2023/11/11 01:16:26;;;;;;;6.00;2.40;;;;;;;10.24;54.68;100247.62;105049;1267;59781;-54
2023/11/11 01:18:54;;;;;;;9.90;4.70;;;;;;;10.21;54.69;100243.09;104762;1266;59830;-55
2023/11/11 01:21:22;;;;;;;10.00;4.40;;;;;;;10.19;54.91;100238.56;105327;1264;62914;-53
2023/11/11 01:23:50;;;;;;;4.60;1.50;;;;;;;10.16;55.08;100235.63;104714;1269;60098;-55
2023/11/11 01:26:19;;;;;;;9.60;4.70;;;;;;;10.13;55.22;100233.23;105236;1269;62760;-54
2023/11/11 01:28:47;;;;;;;6.80;3.80;;;;;;;10.11;55.31;100230.64;105160;1263;60079;-54
2023/11/11 01:31:17;;;;;;;4.50;1.90;;;;;;;10.08;55.48;100224.73;105126;1264;59749;-54
2023/11/11 01:33:45;;;;;;;8.30;4.30;;;;;;;10.06;55.67;100222.08;105831;1261;62835;-56
2023/11/11 01:36:13;;;;;;;10.00;3.90;;;;;;;10.07;55.84;100222.00;104836;1267;60181;-54
2023/11/11 01:38:40;;;;;;;7.80;4.10;;;;;;;10.13;55.89;100218.19;104745;1267;62531;-55
2023/11/11 01:41:08;;;;;;;5.80;1.50;;;;;;;10.20;55.99;100210.91;105541;1267;60024;-54
2023/11/11 01:43:36;;;;;;;8.40;4.00;;;;;;;10.26;55.90;100206.31;104853;1266;59877;-54
2023/11/11 01:46:05;;;;;;;11.90;4.20;;;;;;;10.28;56.01;100199.48;104875;1266;64166;-55
2023/11/11 01:48:34;;;;;;;8.70;2.30;;;;;;;10.29;56.11;100197.40;105069;1262;61377;-54
2023/11/11 01:51:03;;;;;;;7.60;3.80;;;;;;;10.31;56.19;100193.94;105207;1264;62456;-55
2023/11/11 01:53:30;;;;;;;7.10;3.70;;;;;;;10.33;56.30;100191.38;104821;1268;59777;-54
2023/11/11 01:55:58;;;;;;;8.30;3.80;;;;;;;10.33;56.31;100186.41;105693;1264;59812;-56
2023/11/11 01:58:25;;;;;;;5.20;1.80;;;;;;;10.35;56.34;100183.50;105015;1267;62837;-55
2023/11/11 02:00:53;;;;;;;8.00;4.00;;;;;;;10.35;56.39;100180.45;105231;1264;61357;-54
2023/11/11 02:03:21;;;;;;;9.00;2.10;;;;;;;10.36;56.34;100179.50;105663;1269;63921;-54
2023/11/11 02:05:49;;;;;;;6.70;3.70;;;;;;;10.42;56.38;100171.52;104877;1266;59640;-54
2023/11/11 02:08:17;;;;;;;6.70;4.00;;;;;;;10.50;56.39;100168.45;105150;1269;59708;-53
2023/11/11 02:10:45;;;;;;;7.10;3.40;;;;;;;10.53;56.45;100167.47;104928;1265;64170;-55
2023/11/11 02:13:13;;;;;;;7.30;3.80;;;;;;;10.53;56.63;100167.23;105644;1264;61558;-55
2023/11/11 02:15:41;;;;;;;9.00;4.20;;;;;;;10.54;56.56;100164.89;105008;1267;63709;-48
2023/11/11 02:18:10;;;;;;;9.80;4.80;;;;;;;10.53;56.71;100159.88;105565;1264;59725;-55
2023/11/11 02:20:38;;;;;;;5.80;1.90;;;;;;;10.53;56.92;100163.96;105187;1267;59832;-53
2023/11/11 02:23:05;;;;;;;7.40;4.50;;;;;;;10.53;57.01;100159.05;106090;1264;62853;-53
2023/11/11 02:25:33;;;;;;;8.50;4.80;;;;;;;10.54;57.21;100157.55;104673;1269;60470;-54
2023/11/11 02:28:01;;;;;;;6.50;2.70;;;;;;;10.57;57.13;100156.70;105176;1262;63672;-56
2023/11/11 02:30:28;;;;;;;8.00;4.50;;;;;;;10.64;57.13;100151.08;104848;1267;59664;-54
2023/11/11 02:32:56;;;;;;;7.60;4.40;;;;;;;10.67;57.17;100150.87;104792;1269;59644;-56
2023/11/11 02:35:25;;;;;;;8.30;5.00;;;;;;;10.69;57.24;100152.40;105252;1260;66007;-55
2023/11/11 02:37:53;;;;;;;7.60;4.80;;;;;;;10.74;57.18;100149.90;105472;1254;61928;-56
2023/11/11 02:40:20;;;;;;;8.70;4.80;;;;;;;10.77;57.22;100151.41;105584;1259;63791;-56
2023/11/11 02:42:49;;;;;;;6.30;3.90;;;;;;;10.76;57.18;100148.11;105318;1261;59748;-58
2023/11/11 02:45:17;;;;;;;7.60;2.40;;;;;;;10.74;57.28;100140.04;105746;1254;59704;-57
2023/11/11 02:47:45;;;;;;;9.90;5.20;;;;;;;10.73;57.48;100141.41;105441;1258;73512;-56
2023/11/11 02:50:13;;;;;;;7.80;4.30;;;;;;;10.72;57.52;100138.44;105345;1259;61302;-58
2023/11/11 02:52:40;;;;;;;8.80;4.20;;;;;;;10.78;57.51;100130.45;106214;1254;63836;-55
2023/11/11 02:55:09;;;;;;;7.80;4.20;;;;;;;10.86;57.61;100127.48;105210;1254;60628;-56
2023/11/11 02:57:37;;;;;;;8.70;4.30;;;;;;;10.92;57.69;100131.02;105971;1256;60948;-55
2023/11/11 03:00:10;;;;;;;7.20;4.10;;;;;;;10.93;57.77;100131.05;105314;1255;64897;-56
2023/11/11 03:02:39;;;;;;;7.20;4.10;;;;;;;10.92;58.01;100126.44;105931;1255;62371;-55
2023/11/11 03:05:07;;;;;;;10.20;4.10;;;;;;;10.91;58.15;100119.17;105758;1254;62733;-57
2023/11/11 03:07:35;;;;;;;6.40;2.30;;;;;;;10.90;58.41;100116.10;105322;1258;61737;-56
2023/11/11 03:10:05;;;;;;;7.10;3.60;;;;;;;10.91;58.50;100115.09;106566;1255;60536;-56
2023/11/11 03:12:33;;;;;;;6.50;3.70;;;;;;;10.94;58.66;100112.71;105450;1259;63917;-57
2023/11/11 03:15:01;;;;;;;7.50;4.10;;;;;;;10.96;58.60;100106.77;105792;1259;60716;-56
2023/11/11 03:17:29;;;;;;;5.90;3.80;;;;;;;10.95;58.64;100104.77;105164;1257;63778;-55
2023/11/11 03:19:58;;;;;;;7.40;4.20;;;;;;;10.92;58.77;100103.26;105677;1260;60518;-55
2023/11/11 03:22:26;;;;;;;6.80;4.00;;;;;;;10.90;58.89;100097.45;105621;1253;60565;-57
2023/11/11 03:24:54;;;;;;;6.60;4.20;;;;;;;10.88;58.97;100093.05;105824;1257;64906;-54
2023/11/11 03:27:22;;;;;;;4.70;1.80;;;;;;;10.88;58.95;100093.27;105832;1255;62135;-55
2023/11/11 03:29:51;;;;;;;9.90;4.00;;;;;;;10.89;58.83;100093.05;105179;1254;62724;-55
2023/11/11 03:32:19;;;;;;;7.60;3.90;;;;;;;10.90;58.64;100087.62;105686;1254;60516;-55
2023/11/11 03:34:47;;;;;;;6.90;4.10;;;;;;;10.89;58.74;100080.69;105277;1255;60511;-55
2023/11/11 03:37:15;;;;;;;6.90;4.30;;;;;;;10.88;58.84;100076.58;106326;1254;64917;-54
2023/11/11 03:39:43;;;;;;;8.90;3.90;;;;;;;10.89;58.85;100067.73;105766;1254;61724;-55
2023/11/11 03:42:11;;;;;;;8.00;4.80;;;;;;;10.90;58.80;100065.91;105303;1259;62896;-55
2023/11/11 03:44:39;;;;;;;9.80;4.70;;;;;;;10.90;58.80;100076.02;106210;1259;61017;-55
2023/11/11 03:47:07;;;;;;;4.40;1.70;;;;;;;10.90;58.67;100077.83;106060;1258;60402;-56
2023/11/11 03:49:35;;;;;;;6.50;3.60;;;;;;;10.93;58.66;100076.98;105341;1258;64924;-55
2023/11/11 03:52:03;;;;;;;8.00;3.90;;;;;;;10.98;58.54;100071.86;105267;1258;61549;-54
2023/11/11 03:54:30;;;;;;;6.70;3.80;;;;;;;11.02;58.42;100065.45;106174;1255;63917;-56
2023/11/11 03:56:59;;;;;;;7.00;3.50;;;;;;;11.01;58.36;100056.34;105365;1255;60671;-55
2023/11/11 03:59:26;;;;;;;8.90;4.60;;;;;;;11.00;58.32;100051.70;105362;1259;60629;-55
2023/11/11 04:01:54;;;;;;;3.90;1.10;;;;;;;10.97;58.39;100048.00;105265;1261;64832;-56
2023/11/11 04:04:22;;;;;;;7.70;4.20;;;;;;;10.95;58.20;100043.50;106007;1254;61397;-55
2023/11/11 04:06:50;;;;;;;8.10;4.50;;;;;;;10.92;58.18;100038.35;105638;1259;62440;-56
2023/11/11 04:09:18;;;;;;;7.80;3.60;;;;;;;10.89;58.16;100028.95;105830;1257;60436;-56
2023/11/11 04:11:46;;;;;;;7.20;3.30;;;;;;;10.91;58.15;100028.41;105334;1260;60363;-55
2023/11/11 04:14:13;;;;;;;7.10;3.30;;;;;;;10.96;58.11;100021.65;106589;1254;63822;-55
2023/11/11 04:16:44;;;;;;;6.70;3.90;;;;;;;10.98;58.11;100016.57;105278;1255;61391;-55
2023/11/11 04:19:14;;;;;;;8.20;3.80;;;;;;;10.99;58.04;100014.41;105403;1254;62458;-56
2023/11/11 04:21:48;;;;;;;6.30;3.60;;;;;;;11.00;58.04;100009.23;106010;1254;60596;-55
2023/11/11 04:24:19;;;;;;;6.40;3.60;;;;;;;10.99;57.93;100006.69;105821;1254;60559;-55
2023/11/11 04:26:47;;;;;;;6.50;4.10;;;;;;;10.96;57.86;100005.48;106387;1256;64977;-54
2023/11/11 04:29:15;;;;;;;6.80;3.60;;;;;;;10.94;57.98;100010.56;105708;1260;61309;-53
2023/11/11 04:31:42;;;;;;;5.40;1.80;;;;;;;10.92;58.03;100004.48;105463;1260;63753;-54
2023/11/11 04:34:10;;;;;;;7.70;3.60;;;;;;;10.94;58.25;100004.80;105499;1254;60747;-55
2023/11/11 04:36:38;;;;;;;7.60;4.10;;;;;;;11.00;58.12;99994.67;105070;1259;61388;-55
2023/11/11 04:39:08;;;;;;;7.80;3.90;;;;;;;11.04;58.06;100001.11;105063;1259;65175;-52
2023/11/11 04:41:36;;;;;;;11.50;3.80;;;;;;;11.06;58.08;100002.77;105202;1259;60490;-55
2023/11/11 04:44:04;;;;;;;6.00;3.20;;;;;;;11.07;58.21;99999.70;105855;1254;64334;-55
2023/11/11 04:46:32;;;;;;;7.10;3.80;;;;;;;11.06;58.26;99994.16;105359;1254;60613;-55
2023/11/11 04:48:59;;;;;;;4.30;1.70;;;;;;;11.05;58.29;99989.98;105422;1254;60390;-54
2023/11/11 04:51:27;;;;;;;7.50;4.30;;;;;;;11.03;58.42;99990.20;105352;1255;64939;-55
2023/11/11 04:53:55;;;;;;;7.00;4.20;;;;;;;11.00;58.43;99991.30;105297;1256;60371;-58
2023/11/11 04:56:22;;;;;;;6.60;3.60;;;;;;;11.03;58.28;99992.63;105529;1258;62442;-55
2023/11/11 04:58:50;;;;;;;6.10;3.30;;;;;;;11.07;58.29;99999.96;105290;1254;60474;-57
2023/11/11 05:01:20;;;;;;;7.40;3.60;;;;;;;11.08;58.34;100001.66;106106;1254;60515;-55
2023/11/11 05:03:49;;;;;;;6.00;3.30;;;;;;;11.08;58.34;100001.84;105669;1254;63921;-55
2023/11/11 05:06:18;;;;;;;5.80;3.20;;;;;;;11.08;58.35;100002.88;105897;1254;60373;-57
2023/11/11 05:08:46;;;;;;;6.90;3.50;;;;;;;11.07;58.22;100007.02;106098;1260;66666;-57
2023/11/11 05:11:14;;;;;;;5.70;3.50;;;;;;;11.06;58.23;100008.91;105706;1258;60430;-55
2023/11/11 05:13:42;;;;;;;7.70;3.70;;;;;;;11.06;58.26;100007.65;105911;1260;59451;-56
2023/11/11 05:16:24;;;;;;;5.90;3.20;;;;;;;11.06;58.17;100006.61;105949;1259;64952;-57
2023/11/11 05:18:53;;;;;;;6.40;3.20;;;;;;;11.09;57.96;100009.16;105624;1260;60561;-55
2023/11/11 05:21:22;;;;;;;5.90;3.40;;;;;;;11.11;57.79;100007.88;106322;1254;62421;-55
2023/11/11 05:23:49;;;;;;;6.80;4.10;;;;;;;11.13;57.66;100006.85;105386;1254;60482;-55
2023/11/11 05:26:17;;;;;;;7.50;4.00;;;;;;;11.13;57.55;100000.39;105655;1254;60498;-58
2023/11/11 05:28:44;;;;;;;6.50;3.80;;;;;;;11.13;57.48;100001.55;105648;1254;63685;-59
2023/11/11 05:31:12;;;;;;;8.30;5.90;;;;;;;11.14;57.55;99999.59;106331;1254;61906;-53
2023/11/11 05:33:39;;;;;;;7.90;4.40;;;;;;;11.12;57.76;99999.35;105691;1257;63716;-55
2023/11/11 05:36:09;;;;;;;6.70;3.90;;;;;;;11.11;57.98;99990.85;105901;1256;60565;-56
2023/11/11 05:38:36;;;;;;;7.70;4.70;;;;;;;11.14;58.08;99995.02;105378;1254;60606;-56
2023/11/11 05:41:04;;;;;;;6.00;3.90;;;;;;;11.15;58.09;99998.02;106099;1254;64964;-55
2023/11/11 05:43:31;;;;;;;6.60;3.30;;;;;;;11.23;57.64;99996.52;105442;1257;61369;-55
2023/11/11 05:45:59;;;;;;;7.90;3.60;;;;;;;11.29;57.33;99995.38;106107;1254;62595;-55
2023/11/11 05:48:27;;;;;;;6.90;4.40;;;;;;;11.33;57.22;99999.83;105519;1254;60541;-55
2023/11/11 05:50:55;;;;;;;7.30;4.20;;;;;;;11.33;57.30;99991.40;105551;1257;60523;-52
2023/11/11 05:53:22;;;;;;;6.70;3.70;;;;;;;11.33;57.26;99981.89;105810;1254;64916;-53
2023/11/11 05:55:50;;;;;;;7.90;4.10;;;;;;;11.31;57.21;99975.96;106110;1255;60419;-55
2023/11/11 05:58:19;;;;;;;8.40;4.10;;;;;;;11.25;57.17;99974.85;105609;1254;63749;-53
2023/11/11 06:00:48;;;;;;;9.80;4.40;;;;;;;11.19;57.37;99975.57;105460;1254;60494;-55
2023/11/11 06:03:18;;;;;;;7.90;3.60;;;;;;;11.15;57.49;99969.66;105200;1253;61913;-56
2023/11/11 06:05:46;;;;;;;4.40;1.50;;;;;;;11.18;57.73;99964.46;105041;1260;65078;-53
2023/11/11 06:08:14;;;;;;;6.50;3.50;;;;;;;11.24;57.68;99957.23;108226;1254;61434;-54
2023/11/11 06:10:42;;;;;;;6.10;3.40;;;;;;;11.28;57.67;99955.63;105186;1254;63743;-66
2023/11/11 06:13:10;;;;;;;6.80;3.40;;;;;;;11.27;57.75;99945.35;106391;1256;60603;-69
2023/11/11 06:15:38;;;;;;;6.00;3.50;;;;;;;11.28;57.87;99938.64;106268;1259;60555;-64
2023/11/11 06:18:06;;;;;;;7.60;3.60;;;;;;;11.25;57.84;99935.01;106138;1259;64957;-68
2023/11/11 06:20:36;;;;;;;6.10;3.50;;;;;;;11.21;57.93;99932.58;105721;1254;69991;-69
2023/11/11 06:23:04;;;;;;;6.70;3.80;;;;;;;11.19;58.08;99928.56;106677;1254;64239;-67
2023/11/11 06:25:35;;;;;;;5.20;2.80;;;;;;;11.18;58.13;99927.44;106036;1259;60562;-67
2023/11/11 06:28:05;;;;;;;6.00;3.40;;;;;;;11.16;58.33;99924.61;106822;1254;60434;-64
2023/11/11 06:30:33;;;;;;;6.40;3.30;;;;;;;11.20;58.40;99923.05;106043;1254;65689;-67
2023/11/11 06:33:00;;;;;;;6.20;3.30;;;;;;;11.23;58.47;99920.26;106062;1254;61138;-67
2023/11/11 06:35:28;;;;;;;6.60;3.70;;;;;;;11.26;58.46;99915.98;106145;1259;62552;-62
2023/11/11 06:37:56;;;;;;;8.00;3.60;;;;;;;11.26;58.28;99915.95;106021;1256;60556;-62
2023/11/11 06:40:24;;;;;;;8.30;3.50;;;;;;;11.26;58.34;99913.34;105719;1254;62570;-63
2023/11/11 06:42:55;;;;;;;8.20;4.10;;;;;;;11.25;58.36;99909.76;106173;1254;65202;-68
2023/11/11 06:45:23;;;;;;;7.40;4.40;;;;;;;11.25;58.27;99906.42;107053;1254;60551;-66
2023/11/11 06:47:51;;;;;;;8.20;3.90;;;;;;;11.25;58.30;99903.83;105864;1260;62711;-65
2023/11/11 06:50:19;;;;;;;7.50;3.80;;;;;;;11.24;58.38;99899.83;106121;1254;60575;-67
2023/11/11 06:52:47;;;;;;;8.10;3.90;;;;;;;11.26;58.46;99899.24;106141;1259;59144;-63
2023/11/11 06:55:15;;;;;;;6.50;3.60;;;;;;;11.33;58.45;99891.42;106072;1253;63864;-67
2023/11/11 06:57:42;;;;;;;7.90;3.80;;;;;;;11.38;58.43;99891.23;106253;1253;61410;-67
2023/11/11 07:00:15;;;;;;;6.90;3.40;;;;;;;11.37;58.38;99888.80;106391;1256;65918;-67
2023/11/11 07:02:44;;;;;;;7.20;4.00;;;;;;;11.39;58.31;99884.23;106066;1259;59485;-66
2023/11/11 07:05:12;;;;;;;8.50;4.00;;;;;;;11.41;58.31;99881.48;107097;1254;60466;-67
2023/11/11 07:07:40;;;;;;;7.60;4.10;;;;;;;11.40;58.21;99874.50;106101;1256;63672;-66
2023/11/11 07:10:09;;;;;;;7.20;4.20;;;;;;;11.39;58.41;99872.64;106144;1254;61306;-61
2023/11/11 07:12:38;;;;;;;7.50;3.90;;;;;;;11.40;58.50;99869.39;106710;1254;62442;-67
2023/11/11 07:15:10;;;;;;;6.80;3.50;;;;;;;11.47;58.72;99865.29;106210;1256;60393;-68
2023/11/11 07:17:41;;;;;;;6.80;4.10;;;;;;;11.52;58.65;99868.96;106752;1259;60412;-68
2023/11/11 07:20:12;;;;;;;7.10;4.10;;;;;;;11.55;58.74;99864.34;106142;1257;65016;-66
2023/11/11 07:22:40;;;;;;;7.20;4.40;;;;;;;11.56;58.85;99867.10;106554;1254;61402;-66
2023/11/11 07:25:09;;;;;;;8.20;4.10;;;;;;;11.56;58.91;99870.62;106144;1254;63726;-68
2023/11/11 07:27:37;;;;;;;11.00;5.00;;;;;;;11.57;58.90;99865.08;106171;1255;60575;-67
2023/11/11 07:30:09;;;;;;;8.30;4.60;;;;;;;11.55;58.90;99860.13;106024;1254;60333;-66
2023/11/11 07:32:37;;;;;;;7.80;4.70;;;;;;;11.51;59.07;99857.48;106135;1254;63626;-60
2023/11/11 07:35:19;;;;;;;8.20;4.60;;;;;;;11.52;59.07;99851.98;106086;1254;61351;-64
2023/11/11 07:37:47;;;;;;;7.70;4.60;;;;;;;11.57;59.06;99846.75;106085;1256;62525;-63
2023/11/11 07:40:14;;;;;;;8.30;5.10;;;;;;;11.60;59.21;99842.80;106063;1254;60450;-63
2023/11/11 07:42:43;;;;;;;7.40;4.30;;;;;;;11.62;59.41;99836.99;106110;1254;60479;-65
2023/11/11 07:45:11;;;;;;;12.00;4.60;;;;;;;11.65;59.48;99834.21;106064;1254;63641;-61
2023/11/11 07:47:41;;;;;;;8.60;4.70;;;;;;;11.70;59.56;99828.87;105918;1259;60510;-60
2023/11/11 07:50:10;;;;;;;8.40;5.20;;;;;;;11.71;59.89;99819.12;106833;1253;64360;-60
2023/11/11 07:52:38;;;;;;;9.90;4.40;;;;;;;11.70;60.16;99817.80;105082;1255;60585;-60
2023/11/11 07:55:06;;;;;;;8.40;4.20;;;;;;;11.74;60.39;99812.14;109164;1252;58779;-62
2023/11/11 07:57:34;;;;;;;7.40;4.70;;;;;;;11.80;60.52;99812.10;109146;1254;64964;-65
2023/11/11 08:00:06;;;;;;;8.40;4.70;;;;;;;11.89;60.70;99809.30;109178;1253;60534;-64
2023/11/11 08:02:36;;;;;;;7.90;4.30;;;;;;;11.93;60.49;99807.95;107037;1258;63762;-61
2023/11/11 08:05:04;;;;;;;8.90;5.10;;;;;;;11.94;60.65;99806.08;106234;1254;60367;-60
2023/11/11 08:07:31;;;;;;;8.20;4.40;;;;;;;11.98;60.65;99804.50;106066;1254;60531;-63
2023/11/11 08:09:59;;;;;;;7.00;4.60;;;;;;;11.98;60.50;99799.41;106405;1254;63645;-67
2023/11/11 08:12:27;;;;;;;9.10;4.80;;;;;;;11.96;60.41;99795.75;106147;1258;60408;-60
2023/11/11 08:14:57;;;;;;;7.90;4.60;;;;;;;11.89;60.37;99793.66;105540;1254;64457;-63
2023/11/11 08:17:25;;;;;;;8.60;4.80;;;;;;;11.87;60.42;99791.05;106125;1254;62088;-61
2023/11/11 08:19:53;;;;;;;7.20;4.40;;;;;;;11.90;60.37;99784.48;106038;1254;60389;-65
2023/11/11 08:22:21;;;;;;;7.70;4.60;;;;;;;11.92;60.41;99780.95;106172;1254;64018;-59
2023/11/11 08:24:49;;;;;;;8.80;4.70;;;;;;;11.93;60.49;99780.66;105990;1256;60674;-62
2023/11/11 08:27:18;;;;;;;7.00;4.20;;;;;;;11.95;60.44;99778.98;106187;1254;63810;-66
2023/11/11 08:29:47;;;;;;;8.70;4.70;;;;;;;11.93;60.20;99775.48;107050;1254;60090;-63
2023/11/11 08:32:15;;;;;;;7.50;4.30;;;;;;;11.89;60.12;99770.16;105872;1253;60359;-61
2023/11/11 08:34:43;;;;;;;10.20;4.80;;;;;;;11.87;60.35;99764.71;106723;1259;65404;-60
2023/11/11 08:37:10;;;;;;;8.80;4.80;;;;;;;11.88;60.20;99764.27;105942;1254;61385;-59
2023/11/11 08:39:38;;;;;;;8.30;4.80;;;;;;;11.92;60.39;99760.73;109008;1254;62595;-63
2023/11/11 08:42:06;;;;;;;8.10;4.80;;;;;;;11.97;60.67;99755.75;108363;1254;59058;-61
2023/11/11 08:44:34;;;;;;;8.20;4.80;;;;;;;11.99;60.77;99748.28;107212;1254;60620;-61
2023/11/11 08:47:04;;;;;;;10.40;5.30;;;;;;;11.98;60.59;99742.27;106114;1254;64879;-63
2023/11/11 08:49:33;;;;;;;11.00;5.60;;;;;;;11.94;60.75;99738.67;106227;1256;60505;-67
2023/11/11 08:52:02;;;;;;;8.20;5.30;;;;;;;11.91;60.98;99735.02;105981;1253;65888;-66
2023/11/11 08:54:30;;;;;;;9.70;5.40;;;;;;;11.90;61.15;99726.27;106090;1254;60465;-64
2023/11/11 08:56:59;;;;;;;9.60;5.20;;;;;;;11.94;61.19;99724.91;106245;1254;60528;-64
2023/11/11 08:59:26;;;;;;;8.80;5.40;;;;;;;11.98;61.33;99720.98;106351;1259;64959;-68
2023/11/11 09:01:55;;;;;;;11.70;5.80;;;;;;;12.03;61.34;99713.14;106108;1254;60527;-65
2023/11/11 09:04:23;;;;;;;10.90;5.60;;;;;;;12.04;61.31;99707.00;106266;1255;63743;-64
2023/11/11 09:06:50;;;;;;;10.10;5.80;;;;;;;12.06;61.33;99703.14;106110;1256;60444;-64
2023/11/11 09:09:18;;;;;;;9.00;5.80;;;;;;;12.08;61.22;99695.55;105313;1254;60417;-63
2023/11/11 09:11:48;;;;;;;12.30;6.60;;;;;;;12.06;61.09;99690.10;106038;1259;65436;-66
2023/11/11 09:14:16;;;;;;;13.00;7.00;;;;;;;12.03;61.18;99683.05;106590;1254;61439;-68
2023/11/11 09:16:44;;;;;;;10.20;6.00;;;;;;;11.96;61.17;99674.91;106062;1259;62431;-65
2023/11/11 09:19:12;;;;;;;10.60;5.70;;;;;;;11.95;61.14;99668.76;106122;1254;60392;-61
2023/11/11 09:21:39;;;;;;;9.30;5.50;;;;;;;11.97;61.25;99661.83;105679;1254;60617;-63
2023/11/11 09:24:08;;;;;;;13.40;6.10;;;;;;;12.00;61.33;99655.58;105856;1258;65017;-63
2023/11/11 09:26:36;;;;;;;8.90;5.80;;;;;;;12.02;61.41;99650.11;106241;1255;61937;-62
2023/11/11 09:29:23;;;;;;;9.70;6.60;;;;;;;12.04;61.77;99643.77;106165;1254;64302;-61
2023/11/11 09:31:51;;;;;;;9.00;6.20;;;;;;;12.05;61.85;99636.61;106391;1253;60437;-66
2023/11/11 09:34:19;;;;;;;10.50;6.50;;;;;;;12.05;61.80;99626.09;106538;1254;60463;-66
2023/11/11 09:36:46;;;;;;;11.70;6.60;;;;;;;12.04;61.91;99621.10;106083;1254;64972;-64
2023/11/11 09:39:14;;;;;;;10.40;6.10;;;;;;;12.05;61.94;99611.48;106003;1254;61445;-63
2023/11/11 09:41:42;;;;;;;11.70;6.90;;;;;;;12.11;62.04;99610.41;106190;1254;64163;-59
2023/11/11 09:44:09;;;;;;;13.10;7.20;;;;;;;12.18;62.16;99601.61;106319;1254;60568;-59
2023/11/11 09:46:57;;;;;;;11.90;7.90;;;;;;;12.22;62.24;99594.04;105421;1253;61569;-60
2023/11/11 09:49:28;;;;;;;13.50;7.70;;;;;;;12.22;62.27;99588.18;106058;1259;64905;-60
2023/11/11 09:51:57;;;;;;;12.50;7.70;;;;;;;12.21;62.25;99577.06;106126;1254;71132;-63
2023/11/11 09:54:25;;;;;;;14.10;8.40;;;;;;;12.18;62.24;99571.04;105983;1254;62451;-65
2023/11/11 09:56:53;;;;;;;12.30;7.50;;;;;;;12.15;62.53;99564.10;105989;1254;60921;-66
2023/11/11 09:59:24;;;;;;;14.60;8.00;;;;;;;12.17;62.53;99557.71;106040;1253;60481;-68
2023/11/11 10:01:52;;;;;;;13.60;8.60;;;;;;;12.21;62.40;99551.02;106032;1259;65100;-70
2023/11/11 10:04:20;;;;;;;12.90;8.50;;;;;;;12.23;62.50;99548.17;106523;1254;61676;-72
2023/11/11 10:06:48;;;;;;;12.80;9.60;;;;;;;12.21;62.65;99541.86;106201;1258;62458;-72
2023/11/11 10:09:18;;;;;;;13.60;9.50;;;;;;;12.16;62.66;99531.49;106110;1254;60592;-69
2023/11/11 10:11:47;;;;;;;13.90;9.00;;;;;;;12.13;62.92;99527.95;106247;1258;60338;-71
2023/11/11 10:14:15;;;;;;;16.20;9.30;;;;;;;12.06;63.19;99519.23;106279;1254;76532;-70
2023/11/11 10:16:42;;;;;;;13.10;9.70;;;;;;;12.04;63.30;99517.51;106068;1254;61387;-66
2023/11/11 10:19:11;;;;;;;12.90;7.70;;;;;;;12.05;63.12;99509.15;106400;1253;62455;-66
2023/11/11 10:21:39;;;;;;;13.70;9.00;;;;;;;12.08;63.15;99505.17;106311;1253;60562;-64
2023/11/11 10:24:10;;;;;;;16.40;9.60;;;;;;;12.10;63.12;99499.95;106059;1259;60425;-64
2023/11/11 10:26:38;;;;;;;16.30;11.00;;;;;;;12.07;63.35;99494.02;106537;1254;65975;-68
2023/11/11 10:29:09;;;;;;;13.80;10.10;;;;;;;12.03;63.49;99491.27;105277;1257;61865;-62
2023/11/11 10:31:36;;;;;;;15.60;10.30;;;;;;;11.99;63.58;99490.95;105407;1254;63736;-62
2023/11/11 10:34:05;;;;;;;14.70;10.80;;;;;;;11.95;63.77;99484.48;106651;1254;60367;-65
2023/11/11 10:36:43;;;;;;;17.40;10.90;;;;;;;11.89;63.91;99484.96;106609;1253;60092;-61
2023/11/11 10:39:11;;;;;;;13.90;9.40;;;;;;;11.85;63.96;99482.01;105812;1253;66574;-62
2023/11/11 10:41:40;;;;;;;13.20;9.30;;;;;;;11.86;64.03;99480.65;105987;1254;60497;-64
2023/11/11 10:44:08;;;;;;;14.00;9.00;;;;;;;11.89;64.25;99475.95;105726;1256;63769;-64
2023/11/11 10:46:39;;;;;;;14.00;9.70;;;;;;;11.90;64.33;99471.61;106812;1254;60453;-63
2023/11/11 10:49:10;;;;;;;12.90;9.70;;;;;;;11.89;64.50;99469.05;106625;1253;59782;-62
2023/11/11 10:51:38;;;;;;;15.60;11.10;;;;;;;11.87;64.54;99462.25;105560;1256;64924;-62
2023/11/11 10:54:06;;;;;;;12.00;9.30;;;;;;;11.85;64.80;99456.34;105673;1259;61332;-63
2023/11/11 10:56:33;;;;;;;12.90;8.70;;;;;;;11.86;64.63;99450.55;106688;1256;63763;-67
2023/11/11 10:59:05;;;;;;;13.20;9.40;;;;;;;11.87;64.71;99442.39;104736;1258;3472226;-63
2023/11/11 11:03:13;;;;;;;10.10;5.20;;;;;;;11.74;65.59;99434.08;102533;1291;600723;-63
2023/11/11 11:06:08;;;;;;;12.00;9.10;;;;;;;11.96;65.03;99428.72;105081;1266;59308;-65
2023/11/11 11:08:45;;;;;;;14.30;8.60;;;;;;;11.95;64.90;99421.30;104393;1267;59290;-62
2023/11/11 11:11:30;;;;;;;11.50;8.40;;;;;;;11.88;65.14;99411.55;108003;1265;62169;-64
2023/11/11 11:14:10;;;;;;;13.90;9.10;;;;;;;11.83;65.16;99405.23;107780;1265;60282;-62
2023/11/11 11:16:38;;;;;;;10.60;7.40;;;;;;;11.85;65.23;99395.89;102843;1267;3429055;-63
2023/11/11 11:19:07;;;;;;;11.70;7.40;;;;;;;11.89;65.26;99387.69;105218;1267;59276;-66
2023/11/11 11:21:37;;;;;;;8.90;6.60;;;;;;;11.94;65.32;99386.35;105478;1263;59269;-63
2023/11/11 11:24:09;;;;;;;10.10;7.50;;;;;;;11.98;65.49;99380.39;104544;1264;70980;-59
2023/11/11 11:26:36;;;;;;;9.80;6.50;;;;;;;11.97;65.58;99373.02;104439;1263;61344;-62
2023/11/11 11:29:19;;;;;;;8.80;6.30;;;;;;;11.95;65.64;99371.29;106232;1264;64044;-64